Time;durP1;ratioP1;P1;durP2;ratioP2;P2;SDS_P1;SDS_P2;PMS_P1;PMS_P2;Temp;Humidity;BMP_temperature;BMP_pressure;BME280_temperature;BME280_humidity;BME280_pressure;Samples;Min_cycle;Max_cycle;Signal;HPM_P1;HPM_P2
2022/11/22 00:00:04;;;;;;;;;2.00;1.00;;;;;7.12;70.19;98927.66;4900497;28;45438;-58
2022/11/22 00:02:30;;;;;;;;;2.00;2.00;;;;;7.17;69.79;98927.78;4917656;28;45418;-56
2022/11/22 00:04:56;;;;;;;;;3.00;0.50;;;;;7.10;70.25;98925.16;4917313;28;45311;-56
2022/11/22 00:07:21;;;;;;;;;3.00;2.00;;;;;7.10;70.03;98916.97;4900466;28;45324;-56
2022/11/22 00:09:46;;;;;;;;;1.00;1.00;;;;;7.09;70.36;98928.97;4900939;28;45335;-56
2022/11/22 00:12:12;;;;;;;;;1.00;1.00;;;;;7.11;69.52;98924.13;4900109;28;45317;-55
2022/11/22 00:14:37;;;;;;;;;1.00;1.00;;;;;7.08;69.74;98923.72;4887153;29;45317;-57
2022/11/22 00:17:03;;;;;;;;;1.50;1.25;;;;;6.84;69.87;98882.75;4899749;28;46345;-55
2022/11/22 00:19:28;;;;;;;;;2.75;1.50;;;;;7.10;70.01;98919.69;4900210;28;45857;-58
2022/11/22 00:21:54;;;;;;;;;3.25;2.50;;;;;7.05;69.62;98920.41;4918127;28;45736;-56
2022/11/22 00:24:19;;;;;;;;;1.00;1.00;;;;;7.10;69.70;98918.88;4917768;28;45511;-55
2022/11/22 00:26:45;;;;;;;;;4.75;2.00;;;;;7.06;69.88;98926.72;4917293;28;45545;-54
2022/11/22 00:29:12;;;;;;;;;1.00;1.00;;;;;7.03;70.07;98917.09;4917544;28;45711;-57
2022/11/22 00:31:38;;;;;;;;;0.40;0.40;;;;;7.04;70.13;98912.44;4917579;28;45410;-58
2022/11/22 00:34:03;;;;;;;;;2.00;2.00;;;;;7.03;70.04;98922.53;4917566;28;45867;-56
2022/11/22 00:36:29;;;;;;;;;2.00;2.00;;;;;6.88;69.59;98886.69;4916887;28;45510;-53
2022/11/22 00:38:54;;;;;;;;;2.25;2.00;;;;;7.00;70.17;98912.09;4884568;28;45585;-57
2022/11/22 00:41:20;;;;;;;;;3.25;1.50;;;;;6.94;70.10;98901.28;4917644;28;45363;-54
2022/11/22 00:43:46;;;;;;;;;1.75;1.75;;;;;6.95;70.43;98913.88;4917661;28;45327;-55
2022/11/22 00:46:11;;;;;;;;;2.00;2.00;;;;;6.66;70.30;98861.84;4917504;28;46360;-56
2022/11/22 00:48:37;;;;;;;;;1.75;1.25;;;;;6.94;70.27;98918.47;4917395;28;45363;-56
2022/11/22 00:51:02;;;;;;;;;2.75;2.00;;;;;6.06;70.61;98780.72;4917794;28;45363;-55
2022/11/22 00:53:28;;;;;;;;;2.00;2.00;;;;;6.94;70.39;98918.47;4917655;28;45418;-56
2022/11/22 00:55:53;;;;;;;;;1.75;0.75;;;;;6.96;70.10;98907.34;4917448;28;46482;-57
2022/11/22 00:58:19;;;;;;;;;2.25;1.00;;;;;6.34;70.01;98822.88;4900288;28;45391;-56
2022/11/22 01:00:44;;;;;;;;;1.25;0.25;;;;;6.50;70.50;98843.19;4917334;28;45418;-55
2022/11/22 01:03:11;;;;;;;;;3.00;3.00;;;;;6.94;70.62;98923.13;4917472;28;45357;-56
2022/11/22 01:05:36;;;;;;;;;3.20;2.00;;;;;6.91;70.71;98921.69;4916899;28;46203;-53
2022/11/22 01:08:02;;;;;;;;;0.75;0.75;;;;;6.88;70.37;98928.44;4916723;28;45455;-54
2022/11/22 01:10:28;;;;;;;;;1.75;0.00;;;;;6.90;70.16;98926.28;4917659;28;45485;-55
2022/11/22 01:12:53;;;;;;;;;2.25;1.00;;;;;6.85;70.25;98914.41;4885285;28;45443;-57
2022/11/22 01:15:19;;;;;;;;;2.25;1.00;;;;;6.89;70.42;98923.81;4881797;29;46387;-53
2022/11/22 01:17:44;;;;;;;;;1.50;1.00;;;;;6.90;70.75;98922.75;4904372;28;45307;-54
2022/11/22 01:20:10;;;;;;;;;1.00;1.00;;;;;6.60;70.25;98878.06;4920738;28;45378;-56
2022/11/22 01:22:35;;;;;;;;;2.00;1.50;;;;;6.85;70.66;98923.44;4887735;28;45442;-56
2022/11/22 01:25:01;;;;;;;;;2.00;0.50;;;;;6.90;70.48;98912.66;4920214;28;46181;-56
2022/11/22 01:27:26;;;;;;;;;2.25;1.00;;;;;6.90;70.03;98909.91;4920594;28;45765;-54
2022/11/22 01:29:52;;;;;;;;;0.25;0.25;;;;;6.91;70.12;98916.22;4903233;28;45787;-54
2022/11/22 01:32:17;;;;;;;;;4.25;2.00;;;;;6.98;70.19;98910.69;4903590;28;45532;-55
2022/11/22 01:34:43;;;;;;;;;1.75;1.75;;;;;6.88;70.32;98905.78;4920133;28;45485;-55
2022/11/22 01:37:08;;;;;;;;;2.25;1.50;;;;;6.93;70.47;98905.91;4903053;28;45270;-52
2022/11/22 01:39:34;;;;;;;;;1.00;0.00;;;;;6.90;70.13;98899.00;4886430;29;45583;-57
2022/11/22 01:41:59;;;;;;;;;1.50;1.50;;;;;6.97;70.22;98903.53;4900635;29;45216;-57
2022/11/22 01:44:26;;;;;;;;;4.00;2.00;;;;;6.91;70.63;98887.06;4883740;29;47786;-56
2022/11/22 01:46:56;;;;;;;;;6.00;1.80;;;;;6.77;70.40;98874.66;4883753;29;45445;-54
2022/11/22 01:49:33;;;;;;;;;1.40;0.80;;;;;7.04;70.10;98907.00;4900669;29;45417;-58
2022/11/22 01:52:19;;;;;;;;;3.60;2.00;;;;;6.98;70.17;98899.78;4900880;29;45488;-55
2022/11/22 01:54:47;;;;;;;;;3.00;1.40;;;;;6.98;70.31;98897.03;4883347;29;46419;-52
2022/11/22 01:57:19;;;;;;;;;1.00;1.00;;;;;7.04;70.31;98907.00;4883610;29;45558;-55
2022/11/22 01:59:47;;;;;;;;;4.20;1.00;;;;;6.91;70.40;98887.06;4883616;29;45486;-52
2022/11/22 02:02:13;;;;;;;;;1.00;1.00;;;;;7.07;69.93;98914.72;4884039;29;45412;-57
2022/11/22 02:04:38;;;;;;;;;2.00;1.00;;;;;7.08;70.55;98912.81;4900500;29;46115;-57
2022/11/22 02:07:14;;;;;;;;;1.00;1.00;;;;;7.07;70.62;98912.00;4900567;29;45450;-60
2022/11/22 02:09:39;;;;;;;;;0.20;0.20;;;;;7.09;70.68;98912.59;4883588;29;45416;-56
2022/11/22 02:12:05;;;;;;;;;2.00;1.00;;;;;7.11;70.73;98905.03;4883959;29;45384;-53
2022/11/22 02:14:31;;;;;;;;;2.80;1.00;;;;;7.12;70.66;98903.09;4900164;29;45993;-55
2022/11/22 02:16:57;;;;;;;;;2.75;0.50;;;;;6.90;70.50;98854.56;4839393;28;45799;-53
2022/11/22 02:19:44;;;;;;;;;2.00;0.00;;;;;7.07;70.88;98887.44;4894574;28;45321;-56
2022/11/22 02:22:43;;;;;;;;;6.80;3.00;;;;;7.05;70.40;98884.13;4902670;28;45403;-54
2022/11/22 02:25:18;;;;;;;;;1.60;1.60;;;;;6.90;70.66;98860.84;4902079;28;48611;-56
2022/11/22 02:27:43;;;;;;;;;1.20;1.20;;;;;6.95;70.83;98871.06;4901272;28;45478;-55
2022/11/22 02:30:10;;;;;;;;;2.00;1.00;;;;;6.73;71.14;98848.94;4886058;28;45390;-56
2022/11/22 02:32:35;;;;;;;;;0.00;0.00;;;;;6.94;71.30;98876.75;4919129;28;45579;-52
2022/11/22 02:35:01;;;;;;;;;4.50;2.00;;;;;6.91;71.69;98859.78;4902094;28;46501;-56
2022/11/22 02:37:28;;;;;;;;;0.00;0.00;;;;;6.93;71.23;98856.00;4918894;28;45588;-56
2022/11/22 02:40:03;;;;;;;;;2.20;1.20;;;;;6.88;70.96;98870.34;4901868;28;45383;-55
2022/11/22 02:42:28;;;;;;;;;1.40;1.40;;;;;6.66;70.93;98827.22;4919589;28;45402;-52
2022/11/22 02:44:54;;;;;;;;;1.50;0.25;;;;;6.85;71.66;98868.91;4901957;28;46132;-51
2022/11/22 02:47:19;;;;;;;;;3.00;1.75;;;;;6.84;71.86;98869.94;4919095;28;45374;-53
2022/11/22 02:49:45;;;;;;;;;0.00;0.00;;;;;6.83;71.75;98857.38;4918961;28;45363;-56
2022/11/22 02:52:15;;;;;;;;;1.50;0.75;;;;;6.63;71.59;98833.97;4902336;28;45614;-57
2022/11/22 02:54:40;;;;;;;;;1.80;0.80;;;;;6.74;72.09;98836.97;4901948;28;45621;-55
2022/11/22 02:57:06;;;;;;;;;1.00;1.00;;;;;6.82;71.93;98842.09;4902068;28;45356;-55
2022/11/22 02:59:31;;;;;;;;;1.25;0.00;;;;;6.67;71.94;98809.81;4918713;28;45441;-55
2022/11/22 03:01:57;;;;;;;;;1.00;1.00;;;;;6.84;71.82;98842.69;4901762;28;45474;-56
2022/11/22 03:04:25;;;;;;;;;1.00;1.00;;;;;6.87;72.04;98839.50;4918393;28;46484;-56
2022/11/22 03:06:52;;;;;;;;;4.40;0.60;;;;;6.88;71.95;98848.53;4918627;28;45390;-54
2022/11/22 03:09:18;;;;;;;;;0.00;0.00;;;;;6.88;71.91;98854.78;4918820;28;45321;-57
2022/11/22 03:11:43;;;;;;;;;0.00;0.00;;;;;6.86;71.87;98846.03;4918944;28;45433;-54
2022/11/22 03:14:09;;;;;;;;;3.00;1.00;;;;;6.89;71.94;98840.09;4918616;28;46698;-55
2022/11/22 03:16:34;;;;;;;;;1.00;1.00;;;;;6.90;72.16;98835.47;4882151;28;45593;-55
2022/11/22 03:19:00;;;;;;;;;0.50;0.50;;;;;6.86;72.02;98829.66;4909967;28;45598;-55
2022/11/22 03:21:26;;;;;;;;;7.00;2.00;;;;;6.88;72.52;98823.97;4882631;29;45401;-55
2022/11/22 03:23:51;;;;;;;;;1.00;1.00;;;;;6.89;72.15;98828.34;4899450;29;46096;-55
2022/11/22 03:26:17;;;;;;;;;1.25;1.00;;;;;6.88;72.40;98827.53;4899369;29;45268;-57
2022/11/22 03:28:42;;;;;;;;;0.25;0.25;;;;;6.90;72.44;98835.47;4882286;29;45503;-55
2022/11/22 03:31:08;;;;;;;;;0.75;0.75;;;;;6.90;72.79;98832.75;4899778;28;45209;-55
2022/11/22 03:33:34;;;;;;;;;1.75;1.00;;;;;6.72;72.51;98785.41;4899348;29;46185;-56
2022/11/22 03:35:59;;;;;;;;;1.00;1.00;;;;;6.88;72.79;98819.34;4882363;29;45421;-55
2022/11/22 03:38:25;;;;;;;;;4.00;3.00;;;;;6.93;72.62;98834.19;4899166;29;45221;-57
2022/11/22 03:40:50;;;;;;;;;1.25;1.00;;;;;6.76;72.64;98807.56;4882337;29;45442;-54
2022/11/22 03:43:16;;;;;;;;;1.00;1.00;;;;;6.75;72.80;98804.03;4899011;29;45312;-55
2022/11/22 03:45:45;;;;;;;;;1.00;0.25;;;;;7.01;72.70;98839.28;4898970;29;45487;-55
2022/11/22 03:48:10;;;;;;;;;1.00;1.00;;;;;7.02;72.84;98825.41;4899547;29;45502;-52
2022/11/22 03:50:36;;;;;;;;;2.00;0.25;;;;;7.05;72.51;98841.28;4899376;29;45367;-57
2022/11/22 03:53:01;;;;;;;;;1.00;1.00;;;;;7.07;72.79;98846.53;4898786;29;45406;-53
2022/11/22 03:55:27;;;;;;;;;1.25;1.25;;;;;7.09;72.73;98838.91;4899155;29;45343;-55
2022/11/22 03:57:52;;;;;;;;;0.00;0.00;;;;;6.97;72.77;98814.38;4899071;29;45396;-56
2022/11/22 04:00:18;;;;;;;;;2.50;1.25;;;;;7.14;72.38;98828.13;4899219;29;45529;-55
2022/11/22 04:02:43;;;;;;;;;0.00;0.00;;;;;7.10;72.56;98829.66;4898712;29;45173;-56
2022/11/22 04:05:09;;;;;;;;;1.50;1.00;;;;;7.13;73.33;98834.66;4898767;29;45308;-57
2022/11/22 04:07:34;;;;;;;;;1.00;0.00;;;;;7.16;72.67;98834.19;4899048;29;45400;-56
2022/11/22 04:10:00;;;;;;;;;0.75;0.75;;;;;7.17;72.59;98829.56;4899112;29;45705;-58
2022/11/22 04:12:25;;;;;;;;;0.00;0.00;;;;;7.19;72.82;98825.53;4898911;29;45526;-54
2022/11/22 04:15:06;;;;;;;;;1.00;0.00;;;;;7.16;72.98;98817.81;4898861;29;45348;-54
2022/11/22 04:17:45;;;;;;;;;2.60;2.00;;;;;7.22;72.49;98823.41;4881833;29;45784;-54
2022/11/22 04:23:02;;;;;;;;;1.00;1.00;;;;;7.05;72.88;98805.84;4917559;28;45292;-55
2022/11/22 04:25:29;;;;;;;;;2.00;0.60;;;;;7.22;72.87;98817.94;4900247;28;45284;-54
2022/11/22 04:27:55;;;;;;;;;1.00;1.00;;;;;6.99;72.86;98779.50;4917908;28;45380;-55
2022/11/22 04:30:20;;;;;;;;;2.60;1.00;;;;;7.23;72.95;98812.25;4917425;28;45335;-56
2022/11/22 04:32:46;;;;;;;;;1.50;1.50;;;;;7.19;72.88;98798.25;4900579;28;45456;-55
2022/11/22 04:35:15;;;;;;;;;1.00;1.00;;;;;7.27;73.10;98807.97;4917201;28;45512;-56
2022/11/22 04:37:41;;;;;;;;;2.00;1.00;;;;;7.25;72.90;98796.47;4917490;28;45321;-56
2022/11/22 04:40:07;;;;;;;;;1.20;1.00;;;;;7.27;72.98;98790.78;4917908;28;45363;-57
2022/11/22 04:45:17;;;;;;;;;0.80;0.40;;;;;7.30;72.88;98782.09;4917538;28;45299;-55
2022/11/22 04:47:57;;;;;;;;;2.00;1.00;;;;;7.28;72.95;98789.69;4917793;28;45335;-54
2022/11/22 04:53:09;;;;;;;;;1.40;0.00;;;;;7.31;73.19;98794.69;4903334;28;45392;-55
2022/11/22 04:55:34;;;;;;;;;1.25;0.25;;;;;7.12;73.00;98761.22;4923446;28;45453;-55
2022/11/22 04:58:00;;;;;;;;;1.75;1.00;;;;;7.33;72.90;98803.47;4924022;28;45420;-55
2022/11/22 05:00:28;;;;;;;;;2.00;1.00;;;;;7.20;73.24;98779.97;4923773;28;45613;-55
2022/11/22 05:02:53;;;;;;;;;2.40;1.00;;;;;7.29;73.15;98797.66;4923561;28;46586;-53
2022/11/22 05:05:19;;;;;;;;;2.00;0.00;;;;;7.34;73.25;98802.41;4923461;28;45293;-56
2022/11/22 05:07:44;;;;;;;;;1.00;0.00;;;;;7.35;73.33;98795.88;4924137;28;45189;-56
2022/11/22 05:10:10;;;;;;;;;0.25;0.25;;;;;7.35;73.46;98790.41;4906947;28;45724;-57
2022/11/22 05:12:36;;;;;;;;;1.40;1.00;;;;;7.37;73.32;98801.91;4923456;28;45252;-56
2022/11/22 05:15:02;;;;;;;;;1.00;0.75;;;;;7.40;73.68;98806.06;4906488;28;45452;-56
2022/11/22 05:17:27;;;;;;;;;1.00;1.00;;;;;7.43;73.08;98811.06;4885494;28;45843;-55
2022/11/22 05:19:53;;;;;;;;;1.00;1.00;;;;;7.40;73.14;98795.13;4900309;28;45719;-56
2022/11/22 05:23:53;;;;;;;;;1.00;0.50;;;;;7.42;73.11;98793.84;4923588;28;45426;-56
2022/11/22 05:25:04;;;;;;;;;1.80;0.00;;;;;7.29;72.73;98766.78;4923510;28;45407;-56
2022/11/22 05:27:30;;;;;;;;;2.75;0.00;;;;;7.38;73.15;98775.44;4923580;28;45811;-57
2022/11/22 05:29:55;;;;;;;;;0.00;0.00;;;;;7.47;73.20;98798.56;4923324;28;45424;-57
2022/11/22 05:32:20;;;;;;;;;1.00;1.00;;;;;7.48;73.33;98796.69;4905963;28;48409;-54
2022/11/22 05:34:46;;;;;;;;;0.75;0.75;;;;;7.48;73.96;98796.69;4922966;28;45350;-54
2022/11/22 05:37:11;;;;;;;;;1.00;0.00;;;;;7.44;74.68;98797.19;4923423;28;45219;-58
2022/11/22 05:39:37;;;;;;;;;0.75;0.75;;;;;7.45;75.32;98795.25;4923289;28;45640;-58
2022/11/22 05:42:04;;;;;;;;;1.00;1.00;;;;;7.43;75.10;98805.59;4923334;28;46169;-57
2022/11/22 05:44:30;;;;;;;;;3.00;2.00;;;;;7.36;75.78;98789.34;4906429;28;45306;-54
2022/11/22 05:46:55;;;;;;;;;0.25;0.00;;;;;7.41;74.87;98808.56;4923230;28;45438;-54
2022/11/22 05:49:21;;;;;;;;;1.00;1.00;;;;;7.43;75.79;98805.59;4923686;28;45291;-56
2022/11/22 05:51:46;;;;;;;;;0.00;0.00;;;;;7.41;75.73;98797.63;4922985;28;45657;-55
2022/11/22 05:54:12;;;;;;;;;0.50;0.00;;;;;7.40;76.10;98817.81;4923145;28;45457;-57
2022/11/22 05:56:38;;;;;;;;;0.75;0.75;;;;;7.39;76.09;98810.72;4923350;28;45436;-56
2022/11/22 05:59:03;;;;;;;;;0.00;0.00;;;;;7.27;76.11;98799.78;4923348;28;45434;-54
2022/11/22 06:01:29;;;;;;;;;0.25;0.00;;;;;7.25;76.01;98798.38;4904079;28;45740;-55
2022/11/22 06:03:54;;;;;;;;;0.00;0.00;;;;;7.37;76.52;98818.28;4902231;28;45386;-54
2022/11/22 06:06:20;;;;;;;;;1.00;0.50;;;;;7.37;76.17;98806.56;4902778;28;45396;-56
2022/11/22 06:08:46;;;;;;;;;0.00;0.00;;;;;7.36;76.77;98799.44;4903228;28;45401;-55
2022/11/22 06:11:14;;;;;;;;;0.00;0.00;;;;;7.29;76.32;98788.63;4919490;28;46769;-55
2022/11/22 06:13:40;;;;;;;;;0.60;0.00;;;;;7.35;76.49;98800.50;4919983;28;45314;-55
2022/11/22 06:16:06;;;;;;;;;0.60;0.60;;;;;7.36;76.67;98797.53;4902403;28;45346;-56
2022/11/22 06:18:32;;;;;;;;;2.20;1.00;;;;;7.27;76.76;98777.13;4884092;28;45474;-54
2022/11/22 06:20:59;;;;;;;;;1.00;1.00;;;;;7.36;76.56;98788.53;4902292;28;45476;-54
2022/11/22 06:23:24;;;;;;;;;1.00;1.00;;;;;7.31;77.12;98781.06;4867854;28;45381;-55
2022/11/22 06:26:00;;;;;;;;;0.75;0.75;;;;;7.38;76.71;98787.22;4902475;28;45548;-56
2022/11/22 06:28:27;;;;;;;;;3.80;1.80;;;;;7.34;76.77;98788.75;4902928;28;45539;-56
2022/11/22 06:30:52;;;;;;;;;0.80;0.80;;;;;7.44;76.68;98802.63;4886351;28;45850;-57
2022/11/22 06:33:18;;;;;;;;;0.00;0.00;;;;;7.42;76.90;98802.03;4919903;28;45406;-55
2022/11/22 06:35:43;;;;;;;;;1.00;1.00;;;;;7.42;76.98;98812.94;4919788;28;45343;-54
2022/11/22 06:38:09;;;;;;;;;0.50;0.00;;;;;7.39;77.37;98807.97;4919422;28;45366;-55
2022/11/22 06:40:35;;;;;;;;;0.50;0.50;;;;;7.43;77.07;98803.69;4902006;28;45294;-56
2022/11/22 06:43:00;;;;;;;;;0.00;0.00;;;;;7.44;76.34;98812.72;4918883;28;45372;-53
2022/11/22 06:45:26;;;;;;;;;0.75;0.00;;;;;7.42;77.03;98809.41;4919328;28;45355;-56
2022/11/22 06:47:51;;;;;;;;;1.50;0.00;;;;;7.50;76.42;98805.47;4919453;28;45326;-55
2022/11/22 06:50:17;;;;;;;;;0.00;0.00;;;;;7.40;76.06;98789.69;4918849;28;45536;-54
2022/11/22 06:52:42;;;;;;;;;1.50;0.25;;;;;7.51;75.98;98809.84;4902100;28;45442;-56
2022/11/22 06:55:08;;;;;;;;;0.50;0.50;;;;;7.53;75.31;98807.72;4918837;28;45377;-54
2022/11/22 06:57:33;;;;;;;;;0.50;0.00;;;;;7.42;76.19;98802.03;4919259;28;45369;-56
2022/11/22 06:59:59;;;;;;;;;1.50;1.00;;;;;7.48;76.03;98808.44;4918620;28;46343;-55
2022/11/22 07:02:24;;;;;;;;;0.00;0.00;;;;;7.53;76.16;98810.47;4918701;28;45416;-56
2022/11/22 07:04:50;;;;;;;;;0.75;0.75;;;;;7.50;75.99;98810.91;4919212;28;45438;-59
2022/11/22 07:07:15;;;;;;;;;0.00;0.00;;;;;7.50;76.11;98821.84;4901547;28;45500;-55
2022/11/22 07:09:41;;;;;;;;;1.00;1.00;;;;;7.43;75.89;98809.13;4918714;28;45457;-55
2022/11/22 07:12:06;;;;;;;;;0.00;0.00;;;;;7.55;75.83;98841.06;4918458;28;45306;-57
2022/11/22 07:14:32;;;;;;;;;0.00;0.00;;;;;7.50;76.16;98821.84;4918210;28;45438;-56
2022/11/22 07:16:57;;;;;;;;;2.00;1.00;;;;;7.27;75.90;98785.31;4918793;28;45816;-56
2022/11/22 07:19:23;;;;;;;;;1.00;1.00;;;;;7.60;75.89;98833.00;4889997;29;46075;-54
2022/11/22 07:21:48;;;;;;;;;1.25;1.25;;;;;7.60;75.62;98833.00;4851212;28;45359;-55
2022/11/22 07:24:14;;;;;;;;;1.00;1.00;;;;;7.28;76.03;98790.53;4863789;29;45373;-54
2022/11/22 07:26:39;;;;;;;;;1.00;1.00;;;;;7.60;75.67;98839.28;4880306;29;45264;-55
2022/11/22 07:29:05;;;;;;;;;3.00;0.00;;;;;7.51;75.71;98834.41;4880731;29;46246;-58
2022/11/22 07:31:31;;;;;;;;;1.75;1.00;;;;;7.57;75.73;98852.56;4879967;29;45339;-53
2022/11/22 07:33:57;;;;;;;;;0.00;0.00;;;;;7.56;75.72;98859.09;4848403;29;45415;-56
2022/11/22 07:36:22;;;;;;;;;0.00;0.00;;;;;7.51;75.62;98851.63;4880489;29;45651;-54
2022/11/22 07:38:48;;;;;;;;;1.00;0.00;;;;;7.57;75.53;98868.94;4880349;29;47330;-54
2022/11/22 07:41:14;;;;;;;;;0.75;0.00;;;;;7.56;75.47;98879.06;4880525;29;45418;-58
2022/11/22 07:43:40;;;;;;;;;0.00;0.00;;;;;7.53;77.01;98865.88;4880232;29;45286;-55
2022/11/22 07:46:07;;;;;;;;;1.00;1.00;;;;;7.43;76.95;98855.53;4879644;29;45403;-54
2022/11/22 07:48:33;;;;;;;;;3.40;1.80;;;;;7.41;76.78;98840.47;4863159;29;45972;-54
2022/11/22 07:51:07;;;;;;;;;1.00;0.00;;;;;7.42;75.98;98853.06;4863720;29;45395;-57
2022/11/22 07:53:33;;;;;;;;;0.00;0.00;;;;;7.05;76.01;98805.00;4880543;29;45397;-56
2022/11/22 07:56:03;;;;;;;;;0.00;0.00;;;;;7.41;76.26;98856.84;4880402;29;45590;-54
2022/11/22 07:58:28;;;;;;;;;4.40;0.80;;;;;7.40;76.41;98866.09;4863485;29;46081;-57
2022/11/22 08:00:53;;;;;;;;;2.00;0.00;;;;;7.45;76.03;98878.00;4879843;29;45397;-56
2022/11/22 08:03:19;;;;;;;;;0.00;0.00;;;;;7.46;76.58;98874.19;4880318;29;45938;-57
2022/11/22 08:05:44;;;;;;;;;4.00;1.00;;;;;7.46;77.29;98873.34;4881262;29;45601;-55
2022/11/22 08:08:10;;;;;;;;;0.50;0.50;;;;;7.49;77.37;98870.16;4880853;29;46113;-55
2022/11/22 08:10:35;;;;;;;;;0.00;0.00;;;;;7.36;77.68;98843.91;4881069;29;45291;-56
2022/11/22 08:13:01;;;;;;;;;0.00;0.00;;;;;7.53;77.93;98884.97;4863733;29;45261;-56
2022/11/22 08:15:26;;;;;;;;;1.00;1.00;;;;;7.25;77.93;98829.22;4880821;29;45598;-57
2022/11/22 08:17:52;;;;;;;;;0.00;0.00;;;;;7.55;77.98;98874.66;4878576;29;47782;-57
2022/11/22 08:20:17;;;;;;;;;1.75;0.25;;;;;7.15;78.00;98805.25;4908405;28;45338;-57
2022/11/22 08:22:43;;;;;;;;;5.50;5.00;;;;;7.65;77.84;98885.00;4875040;28;45365;-54
2022/11/22 08:25:11;;;;;;;;;2.00;0.75;;;;;7.66;77.58;98878.47;4881665;29;45319;-54
2022/11/22 08:27:40;;;;;;;;;0.00;0.00;;;;;7.71;77.13;98881.31;4882149;29;46569;-56
2022/11/22 08:30:06;;;;;;;;;7.40;4.20;;;;;7.73;77.39;98898.28;4898767;29;45391;-57
2022/11/22 08:32:32;;;;;;;;;1.00;1.00;;;;;7.76;77.08;98885.22;4882104;29;45398;-57
2022/11/22 08:34:58;;;;;;;;;4.50;2.75;;;;;7.79;77.01;98884.75;4881906;29;45546;-57
2022/11/22 08:37:23;;;;;;;;;1.00;1.00;;;;;7.79;77.22;98891.03;4881138;29;48565;-57
2022/11/22 08:39:49;;;;;;;;;3.75;1.00;;;;;7.83;76.79;98900.41;4881033;29;45848;-59
2022/11/22 08:42:14;;;;;;;;;1.25;1.25;;;;;7.84;77.46;98891.16;4898244;29;45337;-60
2022/11/22 08:44:40;;;;;;;;;1.50;0.50;;;;;7.67;77.68;98871.94;4898338;29;45328;-59
2022/11/22 08:47:05;;;;;;;;;2.25;2.00;;;;;7.86;77.56;98910.03;4898047;29;46042;-60
2022/11/22 08:49:31;;;;;;;;;2.50;1.00;;;;;7.85;77.59;98890.06;4898535;29;45430;-59
2022/11/22 08:51:56;;;;;;;;;1.00;1.00;;;;;7.84;77.12;98887.56;4880999;29;45406;-60
2022/11/22 08:54:22;;;;;;;;;2.75;2.25;;;;;7.86;77.32;98894.44;4898877;29;45616;-61
2022/11/22 08:56:47;;;;;;;;;1.75;1.75;;;;;7.61;77.45;98856.50;4897961;28;45385;-61
2022/11/22 08:59:13;;;;;;;;;6.75;6.00;;;;;7.89;77.18;98906.81;4898026;29;45430;-61
2022/11/22 09:01:38;;;;;;;;;2.00;2.00;;;;;7.90;77.18;98903.00;4897954;29;45461;-62
2022/11/22 09:04:04;;;;;;;;;1.00;1.00;;;;;7.88;77.22;98898.88;4898188;29;45410;-59
2022/11/22 09:06:30;;;;;;;;;1.00;1.00;;;;;8.00;76.36;98913.31;4892101;28;45745;-60
2022/11/22 09:08:56;;;;;;;;;0.00;0.00;;;;;8.07;77.13;98913.22;4912873;28;45828;-62
2022/11/22 09:11:21;;;;;;;;;6.50;2.00;;;;;7.34;76.84;98783.28;4898561;28;45364;-61
2022/11/22 09:13:47;;;;;;;;;3.00;1.00;;;;;8.12;76.73;98900.47;4916129;28;45523;-60
2022/11/22 09:16:14;;;;;;;;;2.00;2.00;;;;;8.20;76.15;98918.41;4881660;29;45459;-59
2022/11/22 09:18:40;;;;;;;;;0.20;0.20;;;;;8.25;76.10;98921.25;4879452;29;45597;-60
2022/11/22 09:21:07;;;;;;;;;1.75;1.75;;;;;8.29;76.49;98910.66;4890159;28;45279;-61
2022/11/22 09:23:39;;;;;;;;;4.20;1.60;;;;;8.32;75.73;98912.91;4871600;28;45444;-63
2022/11/22 09:26:07;;;;;;;;;2.80;1.00;;;;;8.31;76.02;98910.44;4915224;28;45408;-61
2022/11/22 09:28:32;;;;;;;;;2.20;2.00;;;;;8.34;75.70;98918.97;4897654;28;45423;-61
2022/11/22 09:31:03;;;;;;;;;3.25;0.75;;;;;8.14;75.52;98892.03;4863983;29;45396;-60
2022/11/22 09:33:32;;;;;;;;;3.00;2.40;;;;;8.50;75.19;98930.22;4896850;29;45331;-60
2022/11/22 09:36:01;;;;;;;;;3.00;1.00;;;;;8.57;75.00;98911.78;4896242;28;45625;-60
2022/11/22 09:38:27;;;;;;;;;1.60;1.60;;;;;8.56;74.05;98909.28;4899671;28;45466;-61
2022/11/22 09:40:53;;;;;;;;;0.20;0.00;;;;;8.63;73.45;98912.72;4881796;29;45827;-63
2022/11/22 09:43:40;;;;;;;;;2.00;1.00;;;;;8.77;73.63;98926.94;4866932;29;45690;-62
2022/11/22 09:46:22;;;;;;;;;4.00;1.40;;;;;8.61;72.94;98890.25;4899400;29;45393;-61
2022/11/22 09:48:52;;;;;;;;;2.00;1.60;;;;;8.92;72.83;98926.41;4899744;29;45371;-62
2022/11/22 09:51:20;;;;;;;;;4.00;1.80;;;;;8.91;73.00;98916.53;4865736;29;45572;-61
2022/11/22 09:53:51;;;;;;;;;2.00;1.40;;;;;8.91;73.10;98916.53;4883335;29;45418;-63
2022/11/22 09:56:17;;;;;;;;;1.40;1.00;;;;;8.87;71.80;98904.41;4899037;29;45715;-64
2022/11/22 09:58:57;;;;;;;;;2.00;1.00;;;;;8.78;72.09;98887.56;4899672;29;45544;-61
2022/11/22 10:01:28;;;;;;;;;3.20;2.20;;;;;9.06;72.09;98924.16;4867978;29;45408;-60
2022/11/22 10:04:05;;;;;;;;;2.40;1.80;;;;;9.02;71.76;98914.81;4898781;28;45500;-62
2022/11/22 10:06:44;;;;;;;;;4.40;1.80;;;;;9.19;71.72;98929.31;4867778;29;47016;-63
2022/11/22 10:09:19;;;;;;;;;3.80;2.00;;;;;9.19;71.42;98931.25;4867282;29;45384;-61
2022/11/22 10:11:56;;;;;;;;;6.00;3.00;;;;;9.28;71.19;98943.44;4901124;28;45387;-63
2022/11/22 10:14:52;;;;;;;;;2.20;1.40;;;;;9.33;71.01;98934.47;4885719;28;45463;-61
2022/11/22 10:17:23;;;;;;;;;1.00;1.00;;;;;9.33;70.96;98929.84;4881345;29;48006;-61
2022/11/22 10:20:05;;;;;;;;;2.60;2.60;;;;;9.43;71.40;98942.88;4888343;28;45317;-61
2022/11/22 10:22:30;;;;;;;;;3.00;1.40;;;;;9.55;70.93;98931.81;4885545;28;45440;-62
2022/11/22 10:24:58;;;;;;;;;5.75;3.00;;;;;9.57;70.41;98942.53;4866948;28;45673;-62
2022/11/22 10:27:23;;;;;;;;;3.80;3.00;;;;;9.77;70.70;98939.28;4856721;28;46891;-61
2022/11/22 10:30:05;;;;;;;;;2.25;2.25;;;;;9.70;70.11;98905.75;4882156;29;45391;-63
2022/11/22 10:32:47;;;;;;;;;6.40;1.60;;;;;9.92;69.09;98949.63;4916383;28;45968;-61
2022/11/22 10:35:12;;;;;;;;;3.00;2.00;;;;;10.01;68.94;98952.78;4901818;28;45507;-61
2022/11/22 10:38:25;;;;;;;;;5.00;2.00;;;;;10.00;68.59;98956.59;4916963;28;46547;-61
2022/11/22 10:41:14;;;;;;;;;5.20;1.60;;;;;10.07;66.65;98960.00;4904568;28;45389;-61
2022/11/22 10:43:58;;;;;;;;;3.60;1.00;;;;;10.08;67.17;98961.66;4881679;29;45502;-61
2022/11/22 10:46:57;;;;;;;;;3.40;1.80;;;;;10.07;67.71;98943.53;4899242;29;45410;-62
2022/11/22 10:49:29;;;;;;;;;5.00;4.00;;;;;10.11;67.49;98958.41;4868641;29;45410;-61
2022/11/22 10:51:59;;;;;;;;;1.00;1.00;;;;;10.17;67.75;98957.41;4901911;28;46611;-62
2022/11/22 10:54:42;;;;;;;;;1.00;1.00;;;;;10.00;67.66;98915.50;4880696;29;45410;-59
2022/11/22 10:57:34;;;;;;;;;3.60;2.00;;;;;10.26;66.31;98963.25;4864342;28;45888;-59
2022/11/22 11:00:37;;;;;;;;;1.20;1.20;;;;;10.22;66.55;98966.78;4871407;29;48495;-59
2022/11/22 11:03:37;;;;;;;;;3.40;2.00;;;;;10.28;66.14;98968.50;4838771;29;45532;-63
2022/11/22 11:06:25;;;;;;;;;1.40;1.20;;;;;10.31;65.11;98968.00;4892401;28;45479;-60
2022/11/22 11:08:55;;;;;;;;;2.20;1.00;;;;;10.31;64.39;98962.53;4881456;29;45435;-60
2022/11/22 11:11:21;;;;;;;;;5.40;3.00;;;;;10.39;65.46;98967.56;4883208;29;46687;-61
2022/11/22 11:13:57;;;;;;;;;2.50;1.00;;;;;11.17;63.64;98940.19;4899591;28;45634;-61
2022/11/22 11:16:24;;;;;;;;;1.60;1.00;;;;;15.81;54.09;98966.53;4868777;29;45391;-61
2022/11/22 11:19:06;;;;;;;;;1.80;1.00;;;;;17.16;48.73;98961.44;4899640;29;45547;-61
2022/11/22 11:21:32;;;;;;;;;2.20;1.00;;;;;16.97;49.00;98936.47;4898650;28;46485;-60
2022/11/22 11:23:57;;;;;;;;;1.00;1.00;;;;;19.25;43.47;98968.44;4918591;28;45522;-61
2022/11/22 11:26:30;;;;;;;;;2.00;1.00;;;;;19.73;39.43;98952.28;4884554;28;45782;-63
2022/11/22 11:29:17;;;;;;;;;1.00;1.00;;;;;17.30;44.26;98954.00;4898322;29;45521;-62
2022/11/22 11:31:50;;;;;;;;;0.20;0.20;;;;;16.10;48.02;98965.75;4914753;28;46476;-62
2022/11/22 11:34:23;;;;;;;;;1.20;1.20;;;;;15.07;50.75;98967.38;4898359;29;45437;-62
2022/11/22 11:36:49;;;;;;;;;3.60;3.60;;;;;14.34;52.40;98977.88;4898119;29;45420;-61
2022/11/22 11:39:28;;;;;;;;;2.00;2.00;;;;;13.68;54.07;98963.94;4898157;28;45696;-60
2022/11/22 11:41:54;;;;;;;;;2.40;1.60;;;;;13.26;55.00;98958.38;4898910;29;46138;-61
2022/11/22 11:44:30;;;;;;;;;2.75;1.00;;;;;12.88;55.47;98969.56;4899386;29;45345;-62
2022/11/22 11:46:56;;;;;;;;;1.00;1.00;;;;;12.75;56.59;98967.31;4914002;28;45404;-61
2022/11/22 11:49:24;;;;;;;;;1.80;0.80;;;;;12.40;57.13;98949.56;4882929;29;45435;-61
2022/11/22 11:51:53;;;;;;;;;2.00;1.00;;;;;12.25;57.43;98983.34;4898436;29;45528;-61
2022/11/22 11:54:20;;;;;;;;;3.20;2.00;;;;;12.04;58.52;98963.97;4897809;29;45428;-61